Time;durP1;ratioP1;P1;durP2;ratioP2;P2;SDS_P1;SDS_P2;PMS_P1;PMS_P2;Temp;Humidity;BMP_temperature;BMP_pressure;BME280_temperature;BME280_humidity;BME280_pressure;Samples;Min_cycle;Max_cycle;Signal;HPM_P1;HPM_P2
2022/12/07 00:01:10;;;;;;;30.58;18.30;;;;;;;2.15;93.03;98664.41;5024473;28;20017;-81
2022/12/07 00:03:37;;;;;;;27.15;16.05;;;;;;;2.12;93.46;98659.53;5021033;28;20227;-81
2022/12/07 00:06:04;;;;;;;28.73;16.67;;;;;;;2.22;93.17;98648.63;5020547;28;20166;-81
2022/12/07 00:08:31;;;;;;;28.92;17.75;;;;;;;2.12;92.94;98663.97;5017486;28;20029;-81
2022/12/07 00:11:01;;;;;;;39.80;19.40;;;;;;;1.93;93.59;98656.84;5019634;28;20033;-81
2022/12/07 00:13:27;;;;;;;32.30;19.25;;;;;;;2.13;93.81;98662.97;5022231;28;20488;-81
2022/12/07 00:15:52;;;;;;;33.55;18.45;;;;;;;2.07;93.56;98648.81;5017481;28;20037;-81
2022/12/07 00:18:17;;;;;;;32.60;18.30;;;;;;;1.99;94.04;98642.88;5015892;28;20581;-81
2022/12/07 00:20:43;;;;;;;32.22;18.80;;;;;;;1.93;93.42;98635.81;5023039;28;20036;-81
2022/12/07 00:23:08;;;;;;;36.58;18.08;;;;;;;1.91;94.00;98640.44;5019403;28;21026;-81
2022/12/07 00:25:34;;;;;;;30.40;16.98;;;;;;;2.05;94.26;98644.75;5017647;28;20045;-81
2022/12/07 00:27:59;;;;;;;36.22;19.08;;;;;;;2.03;93.60;98638.88;5020012;28;20025;-81
2022/12/07 00:30:24;;;;;;;30.42;17.75;;;;;;;2.36;93.73;98641.56;5004240;28;20033;-81
2022/12/07 00:32:50;;;;;;;28.55;17.13;;;;;;;2.34;93.33;98641.75;5023850;28;20673;-81
2022/12/07 00:35:15;;;;;;;29.60;16.85;;;;;;;2.24;93.63;98641.34;5004085;28;20045;-81
2022/12/07 00:37:41;;;;;;;33.10;17.73;;;;;;;2.18;93.81;98628.97;5017674;28;20021;-81
2022/12/07 00:40:07;;;;;;;25.88;16.23;;;;;;;2.02;93.71;98619.63;5022704;28;20042;-81
2022/12/07 00:42:32;;;;;;;27.65;15.90;;;;;;;2.22;93.53;98635.47;4988879;28;20064;-80
2022/12/07 00:44:58;;;;;;;27.77;15.93;;;;;;;2.28;93.17;98616.22;5022457;28;20033;-80
2022/12/07 00:47:23;;;;;;;24.67;14.90;;;;;;;2.21;93.45;98626.75;4990058;28;20429;-80
2022/12/07 00:49:49;;;;;;;23.17;14.57;;;;;;;2.22;93.26;98623.13;5007756;28;20048;-81
2022/12/07 00:52:14;;;;;;;24.77;14.40;;;;;;;2.24;93.55;98620.28;5026724;28;20041;-80
2022/12/07 00:54:40;;;;;;;21.02;14.13;;;;;;;2.11;93.65;98597.38;5024500;28;20432;-80
2022/12/07 00:57:05;;;;;;;26.98;14.93;;;;;;;2.13;93.49;98595.38;4992181;28;20464;-80
2022/12/07 00:59:31;;;;;;;23.40;12.98;;;;;;;2.32;93.30;98606.91;5002867;28;20056;-81
2022/12/07 01:01:56;;;;;;;23.77;14.35;;;;;;;2.21;93.09;98582.00;5003870;28;20078;-81
2022/12/07 01:04:21;;;;;;;22.73;14.60;;;;;;;2.27;92.90;98598.81;5004236;28;20440;-81
2022/12/07 01:06:47;;;;;;;22.52;12.98;;;;;;;2.22;92.93;98599.44;5022981;28;20036;-80
2022/12/07 01:09:12;;;;;;;21.02;14.50;;;;;;;2.28;93.51;98585.44;5020881;28;20044;-81
2022/12/07 01:11:37;;;;;;;20.33;12.77;;;;;;;2.27;93.00;98575.91;5020809;28;20038;-81
2022/12/07 01:14:03;;;;;;;21.63;13.45;;;;;;;2.28;93.19;98580.19;5018454;28;20029;-81
2022/12/07 01:16:30;;;;;;;18.73;12.82;;;;;;;2.17;93.24;98577.34;5024262;28;20065;-80
2022/12/07 01:18:57;;;;;;;21.30;13.07;;;;;;;2.22;93.24;98567.00;5025036;28;20029;-80
2022/12/07 01:21:25;;;;;;;21.52;13.35;;;;;;;2.36;93.40;98588.91;5031094;28;20377;-80
2022/12/07 01:23:51;;;;;;;22.63;14.80;;;;;;;2.34;92.81;98586.44;5021332;28;20041;-81
2022/12/07 01:26:20;;;;;;;22.65;13.63;;;;;;;2.45;92.37;98582.41;5025067;28;20093;-81
2022/12/07 01:28:46;;;;;;;20.58;14.20;;;;;;;2.34;92.67;98590.94;5022764;28;20033;-80
2022/12/07 01:31:17;;;;;;;22.73;14.13;;;;;;;2.44;93.30;98589.50;5022990;28;20665;-80
2022/12/07 01:33:45;;;;;;;18.70;12.65;;;;;;;2.35;93.00;98579.38;5026471;28;20029;-81
2022/12/07 01:36:19;;;;;;;19.92;13.35;;;;;;;2.41;93.13;98583.81;5022566;28;20071;-81
2022/12/07 01:38:47;;;;;;;21.83;13.93;;;;;;;2.35;93.01;98571.47;4980742;28;20418;-80
2022/12/07 01:41:13;;;;;;;24.52;14.32;;;;;;;2.39;93.74;98578.75;5026972;28;20120;-80
2022/12/07 01:44:07;;;;;;;21.50;13.90;;;;;;;2.27;93.95;98578.53;5024776;28;20791;-80
2022/12/07 01:46:32;;;;;;;22.10;14.02;;;;;;;2.27;93.56;98562.75;5026750;28;20021;-80
2022/12/07 01:48:59;;;;;;;16.77;11.77;;;;;;;2.28;93.67;98588.09;5012027;28;20508;-80
2022/12/07 01:51:26;;;;;;;17.52;12.13;;;;;;;2.22;93.93;98575.72;5025636;28;20083;-80
2022/12/07 01:53:51;;;;;;;19.30;13.65;;;;;;;2.24;93.77;98586.06;5010125;28;20029;-81
2022/12/07 01:56:22;;;;;;;19.42;12.80;;;;;;;2.37;93.65;98587.88;5028156;28;20052;-80
2022/12/07 01:58:49;;;;;;;20.85;13.05;;;;;;;2.23;93.55;98577.34;5029847;28;20389;-81
2022/12/07 02:01:14;;;;;;;19.27;12.63;;;;;;;2.29;93.69;98583.63;5012099;28;20028;-80
2022/12/07 02:03:42;;;;;;;19.63;12.20;;;;;;;2.39;93.25;98591.94;5021955;28;20025;-80
2022/12/07 02:06:10;;;;;;;17.75;11.57;;;;;;;2.40;92.83;98577.75;5023066;28;20095;-80
2022/12/07 02:08:35;;;;;;;17.85;11.15;;;;;;;2.27;93.48;98569.88;5025879;28;20040;-80
2022/12/07 02:11:03;;;;;;;18.73;12.18;;;;;;;2.25;93.15;98562.16;5008768;28;20068;-81
2022/12/07 02:13:32;;;;;;;17.40;11.43;;;;;;;2.33;93.51;98578.75;5025051;28;20057;-81
2022/12/07 02:16:19;;;;;;;18.50;11.35;;;;;;;2.48;93.23;98571.47;5017427;28;20029;-80
2022/12/07 02:18:49;;;;;;;20.92;11.07;;;;;;;2.34;93.43;98578.56;5024978;28;20025;-81
2022/12/07 02:21:17;;;;;;;19.73;13.23;;;;;;;2.38;93.83;98571.06;5027035;28;20026;-81
2022/12/07 02:23:59;;;;;;;18.38;11.85;;;;;;;2.32;93.54;98558.69;5024419;28;20025;-81
2022/12/07 02:26:50;;;;;;;16.85;10.90;;;;;;;2.09;93.48;98545.94;5025128;28;20030;-81
2022/12/07 02:29:27;;;;;;;21.17;12.00;;;;;;;2.35;93.83;98558.31;5024603;28;20037;-81
2022/12/07 02:31:58;;;;;;;20.10;12.23;;;;;;;2.41;93.50;98568.84;5025259;28;20034;-80
2022/12/07 02:35:04;;;;;;;17.00;11.18;;;;;;;2.33;93.55;98562.97;5022104;28;20108;-81
2022/12/07 02:37:51;;;;;;;22.65;14.02;;;;;;;2.27;93.28;98562.75;5019889;28;20137;-80
2022/12/07 02:40:40;;;;;;;20.98;12.23;;;;;;;2.44;93.72;98559.72;5025747;28;20026;-80
2022/12/07 02:43:16;;;;;;;20.33;13.32;;;;;;;2.46;93.60;98552.41;5021076;28;20408;-81
2022/12/07 02:45:44;;;;;;;21.30;14.20;;;;;;;2.44;93.80;98551.81;5021645;28;20029;-80
2022/12/07 02:48:13;;;;;;;20.90;13.48;;;;;;;2.45;93.77;98567.41;5022377;28;20069;-80
2022/12/07 02:50:38;;;;;;;23.70;14.75;;;;;;;2.37;93.57;98551.00;5025174;28;20565;-80
2022/12/07 02:53:04;;;;;;;19.40;12.77;;;;;;;2.32;93.59;98548.97;5026393;28;20070;-80
2022/12/07 02:55:37;;;;;;;20.05;13.27;;;;;;;2.38;93.72;98553.44;5024645;28;20044;-79
2022/12/07 02:58:16;;;;;;;26.33;15.85;;;;;;;2.26;93.42;98541.91;5024398;28;20033;-81
2022/12/07 03:00:54;;;;;;;22.83;13.73;;;;;;;2.18;94.13;98539.47;5021514;28;20519;-80
2022/12/07 03:03:20;;;;;;;20.02;13.38;;;;;;;2.38;93.97;98558.69;5018189;28;20083;-80
2022/12/07 03:06:14;;;;;;;26.30;14.63;;;;;;;2.27;93.84;98538.25;5041082;28;20033;-80
2022/12/07 03:08:51;;;;;;;25.65;15.13;;;;;;;2.25;94.12;98522.66;5018903;28;20083;-80
2022/12/07 03:11:41;;;;;;;32.25;16.10;;;;;;;2.31;94.33;98547.38;5022083;28;20045;-80
2022/12/07 03:14:21;;;;;;;28.42;15.85;;;;;;;2.04;94.41;98496.53;5022246;28;20038;-81
2022/12/07 03:17:03;;;;;;;24.42;14.65;;;;;;;2.46;94.07;98550.59;5017371;28;20053;-80
2022/12/07 03:19:32;;;;;;;26.23;16.05;;;;;;;2.36;93.78;98521.22;5015017;28;20381;-80
2022/12/07 03:22:03;;;;;;;28.95;16.77;;;;;;;2.42;93.88;98536.22;4982888;28;20380;-80
2022/12/07 03:24:39;;;;;;;24.65;15.50;;;;;;;2.45;93.83;98541.06;5008662;28;20040;-80
2022/12/07 03:27:20;;;;;;;32.28;17.40;;;;;;;2.31;94.03;98518.41;5016366;28;20542;-80
2022/12/07 03:29:53;;;;;;;30.98;17.70;;;;;;;2.40;94.29;98540.91;5014621;28;20489;-80
2022/12/07 03:32:36;;;;;;;29.08;17.05;;;;;;;2.27;93.91;98507.47;5023254;28;20045;-79
2022/12/07 03:35:12;;;;;;;37.67;18.92;;;;;;;2.19;95.03;98526.09;5004040;28;20116;-80
2022/12/07 03:37:58;;;;;;;30.08;16.98;;;;;;;2.50;93.76;98533.38;5025136;28;20044;-80
2022/12/07 03:40:35;;;;;;;;;;;;;;;2.48;93.74;98540.66;5028546;28;20037;-80
2022/12/07 03:43:03;;;;;;;24.55;16.50;;;;;;;2.48;93.67;98522.25;5021781;28;19978;-80
2022/12/07 03:46:09;;;;;;;28.65;16.15;;;;;;;2.47;93.97;98520.59;5010802;28;20477;-82
2022/12/07 03:48:40;;;;;;;28.40;16.15;;;;;;;2.45;94.00;98530.53;5024683;28;20041;-79
2022/12/07 03:51:44;;;;;;;28.55;17.15;;;;;;;2.46;94.40;98534.81;5026165;28;20331;-82
2022/12/07 03:54:34;;;;;;;26.55;15.05;;;;;;;2.60;94.14;98535.59;5022600;28;20044;-82
2022/12/07 03:57:01;;;;;;;28.05;16.98;;;;;;;2.34;95.03;98536.41;5023739;28;20025;-80
2022/12/07 03:59:28;;;;;;;28.00;17.02;;;;;;;2.38;94.07;98513.94;5025781;28;20021;-80
2022/12/07 04:01:56;;;;;;;27.70;16.13;;;;;;;2.53;94.29;98535.63;5024195;28;20438;-80
2022/12/07 04:04:24;;;;;;;27.17;16.20;;;;;;;2.57;93.70;98521.00;5018650;28;20033;-79
2022/12/07 04:06:49;;;;;;;28.73;17.05;;;;;;;2.57;93.57;98518.38;5026618;28;20041;-80
2022/12/07 04:09:16;;;;;;;34.95;18.15;;;;;;;2.53;94.03;98534.78;5020620;28;20065;-82
2022/12/07 04:11:42;;;;;;;37.45;21.27;;;;;;;2.35;94.50;98521.44;5022559;28;20611;-80
2022/12/07 04:14:19;;;;;;;31.35;17.10;;;;;;;2.55;94.42;98533.59;5024530;28;20030;-80
2022/12/07 04:16:53;;;;;;;36.50;19.23;;;;;;;2.53;94.81;98545.34;4990722;28;20029;-82
2022/12/07 04:19:20;;;;;;;40.03;21.08;;;;;;;2.37;95.03;98535.22;5021038;28;20038;-82
2022/12/07 04:21:47;;;;;;;32.33;17.88;;;;;;;2.54;94.60;98529.31;5040789;28;20057;-82
2022/12/07 04:24:14;;;;;;;38.85;23.42;;;;;;;2.35;94.73;98522.25;5022217;28;20025;-82
2022/12/07 04:26:41;;;;;;;33.60;18.55;;;;;;;2.57;94.65;98528.91;5019556;28;20515;-82
2022/12/07 04:29:06;;;;;;;31.75;18.80;;;;;;;2.36;94.13;98510.69;5021603;28;20026;-81
2022/12/07 04:31:32;;;;;;;38.08;19.42;;;;;;;2.48;94.05;98510.88;5022374;28;21171;-82
2022/12/07 04:33:57;;;;;;;36.22;17.90;;;;;;;2.43;94.01;98518.59;5004049;28;20036;-82
2022/12/07 04:36:22;;;;;;;31.95;18.77;;;;;;;2.45;93.76;98509.47;5000400;28;20064;-82
2022/12/07 04:38:48;;;;;;;40.17;20.88;;;;;;;2.31;94.03;98520.22;5022113;28;20435;-81
2022/12/07 04:41:14;;;;;;;47.33;22.02;;;;;;;2.41;94.65;98531.16;5017080;28;20033;-82
2022/12/07 04:43:39;;;;;;;33.95;18.88;;;;;;;2.29;95.14;98517.81;5022238;28;20485;-81
2022/12/07 04:46:05;;;;;;;36.17;20.92;;;;;;;2.49;94.22;98534.38;5003708;28;20154;-81
2022/12/07 04:48:30;;;;;;;42.58;20.13;;;;;;;2.24;94.24;98501.81;5019152;28;20041;-81
2022/12/07 04:50:56;;;;;;;40.58;20.90;;;;;;;2.22;94.32;98524.91;5015442;28;20033;-81
2022/12/07 04:53:21;;;;;;;36.95;19.65;;;;;;;2.44;94.56;98536.00;4999296;28;20105;-81
2022/12/07 04:55:47;;;;;;;37.45;19.80;;;;;;;2.33;94.61;98534.00;5019561;28;20071;-81
2022/12/07 04:58:13;;;;;;;44.72;22.50;;;;;;;2.24;95.16;98533.41;5022256;28;20040;-81
2022/12/07 05:00:39;;;;;;;40.85;21.58;;;;;;;2.23;94.60;98529.13;5019615;28;20033;-81
2022/12/07 05:03:05;;;;;;;44.80;21.85;;;;;;;2.27;94.97;98533.00;5017751;28;20029;-81
2022/12/07 05:05:31;;;;;;;41.15;21.45;;;;;;;2.40;94.56;98540.06;5020561;28;20041;-80
2022/12/07 05:07:57;;;;;;;41.50;20.60;;;;;;;2.13;94.55;98505.03;5021135;28;20061;-81
2022/12/07 05:10:22;;;;;;;39.67;22.77;;;;;;;2.28;94.56;98538.06;5017515;28;20044;-80
2022/12/07 05:12:48;;;;;;;42.42;21.92;;;;;;;2.04;94.76;98522.03;5021861;28;20669;-80
2022/12/07 05:15:15;;;;;;;41.25;22.63;;;;;;;2.22;94.79;98543.31;4997936;28;20045;-80
2022/12/07 05:17:40;;;;;;;41.30;21.77;;;;;;;2.29;94.38;98536.25;5014742;28;20191;-80
2022/12/07 05:20:07;;;;;;;45.83;24.05;;;;;;;2.28;94.20;98542.50;5018911;28;20033;-80
2022/12/07 05:22:33;;;;;;;45.30;20.90;;;;;;;2.24;94.30;98525.50;5014636;28;20025;-80
2022/12/07 05:24:58;;;;;;;40.13;21.35;;;;;;;2.25;94.32;98521.84;5008933;28;20075;-80
2022/12/07 05:27:24;;;;;;;36.95;20.52;;;;;;;2.34;93.86;98523.25;5017539;28;20456;-80
2022/12/07 05:29:50;;;;;;;35.80;21.20;;;;;;;2.21;93.97;98518.00;5014153;28;20037;-80
2022/12/07 05:32:16;;;;;;;36.60;19.20;;;;;;;2.26;94.37;98519.03;5016799;28;20723;-80
2022/12/07 05:34:41;;;;;;;35.40;20.48;;;;;;;2.26;93.92;98528.72;5016537;28;20040;-80
2022/12/07 05:37:07;;;;;;;33.95;19.92;;;;;;;2.10;94.36;98513.34;5015630;28;20067;-80
2022/12/07 05:39:32;;;;;;;39.47;21.40;;;;;;;2.18;94.39;98526.31;5019479;28;20033;-80
2022/12/07 05:42:13;;;;;;;35.40;20.10;;;;;;;2.14;94.66;98504.84;5016321;28;20390;-80
2022/12/07 05:44:40;;;;;;;38.22;18.67;;;;;;;2.17;94.41;98511.53;5019397;28;20490;-80
2022/12/07 05:47:06;;;;;;;33.50;17.40;;;;;;;2.26;94.60;98526.09;5039647;28;20037;-80
2022/12/07 05:49:31;;;;;;;33.20;19.73;;;;;;;2.17;93.99;98512.34;5021823;28;20029;-80
2022/12/07 05:51:56;;;;;;;39.80;19.13;;;;;;;2.15;94.57;98513.53;5023101;28;20037;-81
2022/12/07 05:54:22;;;;;;;31.92;18.90;;;;;;;2.18;94.95;98518.41;5013281;28;20033;-80
2022/12/07 05:56:47;;;;;;;31.42;18.20;;;;;;;2.13;94.68;98505.03;5013902;28;20033;-80
2022/12/07 05:59:27;;;;;;;40.83;19.40;;;;;;;2.15;94.21;98505.66;5028747;28;20037;-80
2022/12/07 06:01:58;;;;;;;35.67;18.10;;;;;;;2.28;94.02;98522.25;5029806;28;20543;-80
2022/12/07 06:04:26;;;;;;;36.78;19.20;;;;;;;2.29;94.32;98517.81;5032747;28;20485;-80
2022/12/07 06:06:52;;;;;;;30.60;17.80;;;;;;;2.09;94.42;98511.72;5012051;28;20029;-80
2022/12/07 06:09:19;;;;;;;30.58;18.23;;;;;;;2.15;94.37;98500.38;5032145;28;20029;-80
2022/12/07 06:14:28;;;;;;;35.50;17.13;;;;;;;2.22;94.76;98512.53;5028825;28;20048;-80
2022/12/07 06:16:54;;;;;;;37.70;18.33;;;;;;;2.04;94.27;98499.19;5024981;28;20037;-80
2022/12/07 06:19:19;;;;;;;30.88;16.58;;;;;;;2.18;95.16;98507.88;5030497;28;20026;-80
2022/12/07 06:21:45;;;;;;;34.58;16.15;;;;;;;2.19;94.62;98501.59;5025280;28;20408;-80
2022/12/07 06:24:12;;;;;;;34.63;16.52;;;;;;;2.20;94.95;98505.84;5006091;28;20513;-80
2022/12/07 06:26:38;;;;;;;27.95;16.52;;;;;;;2.15;94.17;98498.56;5026213;28;20036;-80
2022/12/07 06:29:03;;;;;;;28.42;16.00;;;;;;;2.15;94.28;98505.66;5028010;28;20880;-80
2022/12/07 06:31:29;;;;;;;32.00;16.55;;;;;;;2.11;94.19;98504.44;5027359;28;20039;-81
2022/12/07 06:34:03;;;;;;;35.08;17.70;;;;;;;2.11;94.09;98512.34;4992857;28;20446;-80
2022/12/07 06:36:29;;;;;;;35.47;17.77;;;;;;;2.01;94.51;98510.09;5021889;28;20026;-80
2022/12/07 06:38:54;;;;;;;29.48;16.23;;;;;;;2.17;94.23;98516.78;5025328;28;20472;-81
2022/12/07 06:41:21;;;;;;;37.08;17.60;;;;;;;2.15;94.27;98524.06;5013033;28;20449;-80
2022/12/07 06:43:46;;;;;;;30.20;17.08;;;;;;;2.16;94.52;98517.81;5027805;28;20370;-80
2022/12/07 06:46:12;;;;;;;28.00;15.82;;;;;;;2.04;95.17;98517.59;5026962;28;20029;-81
2022/12/07 06:48:38;;;;;;;24.15;15.27;;;;;;;2.24;94.79;98514.97;5028485;28;20061;-80
2022/12/07 06:51:03;;;;;;;31.90;15.20;;;;;;;2.35;93.87;98529.34;5029504;28;20455;-81
2022/12/07 06:53:29;;;;;;;26.75;14.18;;;;;;;2.20;94.43;98513.75;5009303;28;20087;-80
2022/12/07 06:55:54;;;;;;;38.65;16.35;;;;;;;2.24;94.74;98536.03;5008808;28;20037;-81
2022/12/07 06:58:20;;;;;;;27.88;15.18;;;;;;;2.17;94.77;98524.69;5029374;28;20079;-80
2022/12/07 07:00:45;;;;;;;26.13;14.15;;;;;;;2.29;94.41;98528.34;4990765;28;20595;-81
2022/12/07 07:03:12;;;;;;;27.40;14.80;;;;;;;2.18;94.08;98510.53;5007895;28;20037;-81
2022/12/07 07:05:37;;;;;;;25.27;14.55;;;;;;;2.18;94.41;98531.59;5027470;28;20069;-80
2022/12/07 07:08:03;;;;;;;26.52;13.77;;;;;;;2.24;94.41;98525.50;5034898;28;20109;-81
2022/12/07 07:10:29;;;;;;;21.67;13.35;;;;;;;2.23;94.70;98523.88;5029989;28;20112;-81
2022/12/07 07:12:54;;;;;;;30.17;13.55;;;;;;;2.11;95.25;98518.41;5014231;28;20373;-81
2022/12/07 07:15:19;;;;;;;28.10;14.00;;;;;;;2.24;94.83;98534.22;5032290;28;20094;-81
2022/12/07 07:17:45;;;;;;;31.55;13.50;;;;;;;2.20;94.71;98535.63;5014321;28;20033;-81
2022/12/07 07:20:11;;;;;;;23.52;13.73;;;;;;;2.19;95.09;98512.13;5008777;28;20467;-81
2022/12/07 07:22:36;;;;;;;23.15;13.73;;;;;;;2.25;94.89;98535.81;5025369;28;20113;-81
2022/12/07 07:25:02;;;;;;;27.52;14.57;;;;;;;2.28;94.63;98542.50;5033320;28;20044;-81
2022/12/07 07:27:27;;;;;;;25.35;14.30;;;;;;;2.20;94.55;98522.47;5014377;28;20129;-81
2022/12/07 07:29:53;;;;;;;26.80;13.95;;;;;;;2.33;94.35;98526.91;5010925;28;20029;-81
2022/12/07 07:32:18;;;;;;;22.45;13.30;;;;;;;2.25;94.81;98538.44;5026204;28;20029;-81
2022/12/07 07:34:43;;;;;;;27.85;14.15;;;;;;;2.19;95.18;98514.75;5030547;28;20112;-81
2022/12/07 07:37:10;;;;;;;25.70;14.23;;;;;;;2.35;94.87;98539.88;5010088;28;20033;-81
2022/12/07 07:39:36;;;;;;;29.80;14.13;;;;;;;2.21;94.68;98525.88;5008687;28;20040;-81
2022/12/07 07:42:01;;;;;;;26.33;13.82;;;;;;;2.29;94.69;98528.34;5019047;28;20112;-81
2022/12/07 07:44:27;;;;;;;25.58;13.90;;;;;;;2.31;95.03;98531.56;5027934;28;20045;-81
2022/12/07 07:46:52;;;;;;;25.95;15.48;;;;;;;2.24;95.16;98536.84;5029830;28;20025;-81
2022/12/07 07:49:17;;;;;;;27.25;13.82;;;;;;;2.19;95.35;98518.22;5025352;28;20037;-81
2022/12/07 07:51:43;;;;;;;26.75;13.18;;;;;;;2.35;95.09;98542.50;5028848;28;20456;-81
2022/12/07 07:54:08;;;;;;;21.50;13.38;;;;;;;2.25;94.57;98527.91;5029100;28;20147;-81
2022/12/07 07:56:33;;;;;;;26.63;14.63;;;;;;;2.38;94.93;98542.88;5012079;28;20281;-81
2022/12/07 07:58:59;;;;;;;28.25;16.15;;;;;;;2.33;95.09;98545.34;5021882;28;20037;-81
2022/12/07 08:01:24;;;;;;;28.33;16.80;;;;;;;2.23;94.80;98534.38;5021377;28;20034;-81
2022/12/07 08:03:50;;;;;;;33.05;16.10;;;;;;;2.29;95.60;98554.66;5017394;28;20497;-81
2022/12/07 08:06:15;;;;;;;28.63;14.57;;;;;;;2.23;94.73;98537.03;5021131;28;20050;-81
2022/12/07 08:08:42;;;;;;;29.45;13.40;;;;;;;2.35;95.12;98538.06;5021877;28;20455;-81
2022/12/07 08:11:08;;;;;;;25.73;13.43;;;;;;;2.33;95.05;98555.06;4999263;28;20033;-81
2022/12/07 08:13:34;;;;;;;26.17;13.55;;;;;;;2.40;94.91;98550.63;5020951;28;20029;-81
2022/12/07 08:16:11;;;;;;;23.05;13.20;;;;;;;2.41;95.23;98554.84;5018608;28;20049;-81
2022/12/07 08:18:38;;;;;;;21.73;12.07;;;;;;;2.34;94.48;98539.06;5018723;28;20040;-81
2022/12/07 08:21:05;;;;;;;25.95;13.50;;;;;;;2.41;94.58;98554.84;5019925;28;20041;-81
2022/12/07 08:23:30;;;;;;;21.63;11.95;;;;;;;2.30;94.84;98540.47;5000533;28;20030;-81
2022/12/07 08:26:01;;;;;;;22.77;12.70;;;;;;;2.25;95.20;98524.47;5017154;28;20095;-81
2022/12/07 08:28:26;;;;;;;24.65;12.13;;;;;;;2.28;94.93;98548.59;5016885;28;20021;-81
2022/12/07 08:30:51;;;;;;;18.58;10.80;;;;;;;2.22;95.17;98538.06;5018647;28;20095;-81
2022/12/07 08:33:17;;;;;;;21.77;12.63;;;;;;;2.29;95.13;98544.13;5003460;28;21615;-81
2022/12/07 08:35:42;;;;;;;24.38;11.38;;;;;;;2.30;95.28;98545.75;5018098;28;20040;-80
2022/12/07 08:38:08;;;;;;;16.90;10.90;;;;;;;2.34;94.65;98554.84;5002345;28;20179;-81
2022/12/07 08:40:33;;;;;;;20.42;11.38;;;;;;;2.32;94.74;98556.88;5015596;28;20025;-81
2022/12/07 08:42:58;;;;;;;20.63;10.55;;;;;;;2.28;94.84;98560.94;5025088;28;20493;-81
2022/12/07 08:45:24;;;;;;;22.23;12.30;;;;;;;2.30;94.95;98553.63;5023293;28;20278;-81
2022/12/07 08:48:02;;;;;;;29.40;12.43;;;;;;;2.13;94.36;98547.16;5024794;28;20037;-81
2022/12/07 08:50:27;;;;;;;20.30;12.40;;;;;;;2.36;94.85;98562.56;5026992;28;20556;-81
2022/12/07 08:52:56;;;;;;;19.67;11.18;;;;;;;2.38;93.84;98558.69;5010869;28;20033;-81
2022/12/07 08:55:22;;;;;;;22.02;11.38;;;;;;;2.48;94.84;98574.09;5021319;28;20041;-81
2022/12/07 08:57:48;;;;;;;21.10;10.95;;;;;;;2.45;94.55;98551.59;5026279;28;20044;-81
2022/12/07 09:00:14;;;;;;;15.32;10.77;;;;;;;2.43;94.14;98551.00;5023696;28;20136;-81
2022/12/07 09:02:40;;;;;;;23.20;11.02;;;;;;;2.39;94.15;98541.91;5026250;28;20054;-81
2022/12/07 09:05:05;;;;;;;23.88;11.95;;;;;;;2.36;94.45;98547.56;5019727;28;20037;-81
2022/12/07 09:07:33;;;;;;;25.83;12.43;;;;;;;2.41;94.56;98558.31;5025247;28;20338;-81
2022/12/07 09:09:58;;;;;;;27.05;12.80;;;;;;;2.32;94.36;98548.97;5022543;28;20449;-81
2022/12/07 09:12:24;;;;;;;25.02;12.25;;;;;;;2.39;94.84;98559.50;5018561;28;20122;-81
2022/12/07 09:14:49;;;;;;;21.33;11.68;;;;;;;2.52;95.36;98555.06;5027452;28;20076;-81
2022/12/07 09:17:15;;;;;;;24.77;12.00;;;;;;;2.40;94.57;98538.25;5028036;28;20033;-81
2022/12/07 09:19:42;;;;;;;20.38;9.63;;;;;;;2.53;94.92;98561.94;5009185;28;20112;-81
2022/12/07 09:22:08;;;;;;;17.58;11.02;;;;;;;2.45;94.93;98562.13;5021373;28;20120;-81
2022/12/07 09:24:33;;;;;;;19.70;10.48;;;;;;;2.43;95.17;98561.53;5019701;28;20115;-81
2022/12/07 09:26:58;;;;;;;22.27;12.88;;;;;;;2.54;95.58;98563.56;5034984;28;20049;-81
2022/12/07 09:29:24;;;;;;;23.55;11.57;;;;;;;2.51;94.74;98563.16;5027224;28;20041;-81
2022/12/07 09:31:50;;;;;;;21.42;11.80;;;;;;;2.68;94.53;98567.00;5029269;28;20033;-81
2022/12/07 09:34:16;;;;;;;20.50;11.23;;;;;;;2.65;95.17;98562.13;5031891;28;20141;-81
2022/12/07 09:36:42;;;;;;;22.38;11.15;;;;;;;2.64;95.07;98556.06;4996102;28;20052;-81
2022/12/07 09:39:08;;;;;;;25.42;10.82;;;;;;;2.65;94.55;98554.22;5027434;28;20083;-81
2022/12/07 09:41:41;;;;;;;21.48;11.82;;;;;;;2.69;94.54;98569.41;5029030;28;20044;-81
2022/12/07 09:44:13;;;;;;;21.25;11.48;;;;;;;2.67;94.94;98563.53;5029050;28;20653;-81
2022/12/07 09:46:41;;;;;;;24.48;11.18;;;;;;;2.68;94.52;98567.81;5030196;28;20029;-81
2022/12/07 09:49:18;;;;;;;21.38;10.23;;;;;;;2.63;94.92;98567.59;5023464;28;20148;-81
2022/12/07 09:51:44;;;;;;;18.90;11.05;;;;;;;2.63;95.30;98562.34;5029377;28;20037;-81
2022/12/07 09:54:13;;;;;;;22.00;10.73;;;;;;;2.57;95.16;98557.91;5022273;28;20021;-81
2022/12/07 09:56:39;;;;;;;19.30;11.10;;;;;;;2.64;95.15;98557.88;5022498;28;20080;-81
2022/12/07 09:59:04;;;;;;;17.25;9.75;;;;;;;2.64;94.33;98563.16;5026135;28;20068;-81
2022/12/07 10:01:32;;;;;;;17.90;9.57;;;;;;;2.57;94.60;98557.91;5011386;28;20033;-81
2022/12/07 10:04:12;;;;;;;20.70;10.00;;;;;;;2.44;95.11;98554.44;5022681;28;20080;-81
2022/12/07 10:06:38;;;;;;;18.40;9.95;;;;;;;2.69;94.87;98560.69;5024544;28;20033;-81
2022/12/07 10:09:10;;;;;;;17.42;9.80;;;;;;;2.66;94.27;98547.94;5030065;28;20029;-81
2022/12/07 10:11:55;;;;;;;21.98;9.52;;;;;;;2.75;94.39;98559.91;5031860;28;20037;-81
2022/12/07 10:14:21;;;;;;;20.25;8.88;;;;;;;2.66;94.45;98529.50;5025273;28;20432;-81
2022/12/07 10:16:46;;;;;;;20.33;9.52;;;;;;;2.79;94.15;98561.09;5017177;28;20026;-81
2022/12/07 10:19:27;;;;;;;16.88;10.32;;;;;;;2.67;94.67;98546.91;5027060;28;20416;-81
2022/12/07 10:22:12;;;;;;;14.63;9.40;;;;;;;2.69;95.06;98553.59;5031840;28;20021;-81
2022/12/07 10:24:40;;;;;;;18.92;9.25;;;;;;;2.76;94.67;98541.22;5028524;28;20032;-81
2022/12/07 10:27:21;;;;;;;19.50;9.82;;;;;;;2.94;94.65;98551.94;5024547;28;20477;-81
2022/12/07 10:29:51;;;;;;;20.05;10.23;;;;;;;2.86;94.26;98546.88;5032844;28;20029;-81
2022/12/07 10:32:17;;;;;;;17.33;9.73;;;;;;;2.90;94.21;98537.56;5027213;28;20436;-81
2022/12/07 10:34:42;;;;;;;16.90;8.73;;;;;;;2.72;94.43;98571.66;5031193;28;20091;-81
2022/12/07 10:37:16;;;;;;;20.88;9.85;;;;;;;2.84;94.51;98556.81;5028290;28;20044;-81
2022/12/07 10:39:41;;;;;;;13.07;8.50;;;;;;;2.68;94.18;98548.56;5025427;28;20048;-81
2022/12/07 10:42:33;;;;;;;17.90;8.65;;;;;;;2.54;94.38;98545.13;5029897;28;20108;-81
2022/12/07 10:45:10;;;;;;;14.38;8.27;;;;;;;2.80;94.60;98547.72;5029582;28;20133;-81
2022/12/07 10:48:03;;;;;;;16.23;8.18;;;;;;;2.69;94.36;98531.72;5039234;28;20485;-80
2022/12/07 10:51:05;;;;;;;13.88;8.50;;;;;;;2.76;93.70;98550.97;5025567;28;20493;-81
2022/12/07 10:53:51;;;;;;;16.15;10.77;;;;;;;2.69;93.72;98543.06;5031220;28;20040;-81
2022/12/07 10:56:26;;;;;;;17.70;8.88;;;;;;;2.74;94.24;98543.28;5021093;28;20033;-81
2022/12/07 10:59:21;;;;;;;17.77;8.60;;;;;;;2.87;93.86;98545.06;5029234;28;20029;-80
2022/12/07 11:01:54;;;;;;;17.25;11.02;;;;;;;2.80;94.01;98555.63;5024281;28;20381;-81
2022/12/07 11:04:57;;;;;;;17.50;8.10;;;;;;;2.68;93.72;98551.19;5027086;28;20033;-81
2022/12/07 11:07:55;;;;;;;21.63;8.85;;;;;;;2.91;93.58;98552.34;5020282;28;20026;-80
2022/12/07 11:10:44;;;;;;;15.45;8.65;;;;;;;2.82;93.46;98540.41;5031661;28;20052;-81
2022/12/07 11:13:15;;;;;;;15.82;8.50;;;;;;;3.01;93.70;98544.03;5044311;28;20021;-81
2022/12/07 11:16:02;;;;;;;14.25;7.90;;;;;;;2.84;93.77;98548.13;5028734;28;20040;-81
2022/12/07 11:18:40;;;;;;;16.40;7.78;;;;;;;2.96;92.96;98544.63;5026740;28;20032;-80
2022/12/07 11:21:37;;;;;;;18.60;8.77;;;;;;;2.78;93.15;98520.75;5028442;28;20033;-81
2022/12/07 11:24:25;;;;;;;14.27;8.27;;;;;;;2.83;93.27;98523.59;5027379;28;20100;-80
2022/12/07 11:27:35;;;;;;;17.83;8.10;;;;;;;2.88;93.25;98531.66;5028392;28;20037;-81
2022/12/07 11:30:28;;;;;;;13.82;7.28;;;;;;;2.94;93.33;98515.03;5043675;28;20071;-81
2022/12/07 11:33:20;;;;;;;15.82;9.13;;;;;;;2.86;93.14;98520.53;5028329;28;20389;-81
2022/12/07 11:35:57;;;;;;;16.27;7.97;;;;;;;2.87;93.24;98508.97;5020021;28;20025;-81
2022/12/07 11:38:42;;;;;;;15.45;7.25;;;;;;;2.75;93.75;98509.84;5027279;28;20026;-81
2022/12/07 11:41:15;;;;;;;18.33;7.68;;;;;;;2.65;93.25;98512.06;5025723;28;20423;-81
2022/12/07 11:44:11;;;;;;;19.48;8.57;;;;;;;2.94;93.63;98519.50;5023682;28;20477;-81